sensor_id;sensor_type;location;lat;lon;timestamp;P1;durP1;ratioP1;P2;durP2;ratioP2
45905;SDS011;31619;49.008;12.106;2022-08-07T00:01:54;1.88;;;1.77;;
45905;SDS011;31619;49.008;12.106;2022-08-07T00:04:19;2.05;;;1.95;;
45905;SDS011;31619;49.008;12.106;2022-08-07T00:06:45;2.08;;;1.95;;
45905;SDS011;31619;49.008;12.106;2022-08-07T00:09:11;4.55;;;2.17;;
45905;SDS011;31619;49.008;12.106;2022-08-07T00:11:36;2.65;;;2.20;;
45905;SDS011;31619;49.008;12.106;2022-08-07T00:14:02;2.47;;;2.38;;
45905;SDS011;31619;49.008;12.106;2022-08-07T00:16:28;2.15;;;2.05;;
45905;SDS011;31619;49.008;12.106;2022-08-07T00:18:53;2.20;;;2.10;;
45905;SDS011;31619;49.008;12.106;2022-08-07T00:21:19;2.17;;;2.08;;
45905;SDS011;31619;49.008;12.106;2022-08-07T00:23:45;2.15;;;2.00;;
45905;SDS011;31619;49.008;12.106;2022-08-07T00:26:11;6.40;;;2.10;;
45905;SDS011;31619;49.008;12.106;2022-08-07T00:28:37;2.45;;;2.33;;
45905;SDS011;31619;49.008;12.106;2022-08-07T00:31:12;2.33;;;2.15;;
45905;SDS011;31619;49.008;12.106;2022-08-07T00:33:38;2.28;;;2.17;;
45905;SDS011;31619;49.008;12.106;2022-08-07T00:36:04;2.35;;;2.15;;
45905;SDS011;31619;49.008;12.106;2022-08-07T00:38:31;2.20;;;2.10;;
45905;SDS011;31619;49.008;12.106;2022-08-07T00:40:59;2.13;;;2.03;;
45905;SDS011;31619;49.008;12.106;2022-08-07T00:43:26;2.50;;;2.30;;
45905;SDS011;31619;49.008;12.106;2022-08-07T00:45:52;2.42;;;2.30;;
45905;SDS011;31619;49.008;12.106;2022-08-07T00:48:17;2.15;;;2.05;;
45905;SDS011;31619;49.008;12.106;2022-08-07T00:50:43;2.33;;;1.98;;
45905;SDS011;31619;49.008;12.106;2022-08-07T00:53:08;2.20;;;2.10;;
45905;SDS011;31619;49.008;12.106;2022-08-07T00:55:34;2.78;;;2.58;;
45905;SDS011;31619;49.008;12.106;2022-08-07T00:58:01;2.15;;;2.00;;
45905;SDS011;31619;49.008;12.106;2022-08-07T01:00:27;2.03;;;2.00;;
45905;SDS011;31619;49.008;12.106;2022-08-07T01:02:52;2.05;;;1.95;;
45905;SDS011;31619;49.008;12.106;2022-08-07T01:05:19;3.20;;;2.90;;
45905;SDS011;31619;49.008;12.106;2022-08-07T01:07:46;2.78;;;2.58;;
45905;SDS011;31619;49.008;12.106;2022-08-07T01:10:12;2.15;;;1.88;;
45905;SDS011;31619;49.008;12.106;2022-08-07T01:12:39;1.90;;;1.80;;
45905;SDS011;31619;49.008;12.106;2022-08-07T01:15:06;2.72;;;2.10;;
45905;SDS011;31619;49.008;12.106;2022-08-07T01:17:33;2.20;;;2.03;;
45905;SDS011;31619;49.008;12.106;2022-08-07T01:20:06;2.00;;;1.90;;
45905;SDS011;31619;49.008;12.106;2022-08-07T01:22:35;2.50;;;2.30;;
45905;SDS011;31619;49.008;12.106;2022-08-07T01:25:02;2.08;;;1.98;;
45905;SDS011;31619;49.008;12.106;2022-08-07T01:27:29;2.20;;;2.10;;
45905;SDS011;31619;49.008;12.106;2022-08-07T01:29:54;2.72;;;2.10;;
45905;SDS011;31619;49.008;12.106;2022-08-07T01:32:20;2.10;;;2.00;;
45905;SDS011;31619;49.008;12.106;2022-08-07T01:34:46;2.10;;;2.00;;
45905;SDS011;31619;49.008;12.106;2022-08-07T01:37:13;1.83;;;1.73;;
45905;SDS011;31619;49.008;12.106;2022-08-07T01:39:41;2.40;;;2.20;;
45905;SDS011;31619;49.008;12.106;2022-08-07T01:42:08;3.17;;;2.28;;
45905;SDS011;31619;49.008;12.106;2022-08-07T01:44:34;1.95;;;1.85;;
45905;SDS011;31619;49.008;12.106;2022-08-07T01:47:00;1.90;;;1.80;;
45905;SDS011;31619;49.008;12.106;2022-08-07T01:49:26;3.45;;;2.40;;
45905;SDS011;31619;49.008;12.106;2022-08-07T01:51:51;2.10;;;2.00;;
45905;SDS011;31619;49.008;12.106;2022-08-07T01:54:19;1.90;;;1.80;;
45905;SDS011;31619;49.008;12.106;2022-08-07T01:56:55;2.25;;;1.92;;
45905;SDS011;31619;49.008;12.106;2022-08-07T01:59:43;2.08;;;1.98;;
45905;SDS011;31619;49.008;12.106;2022-08-07T02:02:19;1.92;;;1.83;;
45905;SDS011;31619;49.008;12.106;2022-08-07T02:04:53;2.10;;;2.00;;
45905;SDS011;31619;49.008;12.106;2022-08-07T02:07:31;1.90;;;1.80;;
45905;SDS011;31619;49.008;12.106;2022-08-07T02:10:00;2.35;;;2.15;;
45905;SDS011;31619;49.008;12.106;2022-08-07T02:12:29;2.00;;;1.90;;
45905;SDS011;31619;49.008;12.106;2022-08-07T02:14:57;2.28;;;2.17;;
45905;SDS011;31619;49.008;12.106;2022-08-07T02:17:25;1.83;;;1.65;;
45905;SDS011;31619;49.008;12.106;2022-08-07T02:19:52;1.80;;;1.75;;
45905;SDS011;31619;49.008;12.106;2022-08-07T02:22:20;2.65;;;2.05;;
45905;SDS011;31619;49.008;12.106;2022-08-07T02:24:49;1.85;;;1.75;;
45905;SDS011;31619;49.008;12.106;2022-08-07T02:27:18;2.08;;;1.98;;
45905;SDS011;31619;49.008;12.106;2022-08-07T02:29:47;2.40;;;2.00;;
45905;SDS011;31619;49.008;12.106;2022-08-07T02:32:15;1.98;;;1.88;;
45905;SDS011;31619;49.008;12.106;2022-08-07T02:34:42;2.17;;;2.05;;
45905;SDS011;31619;49.008;12.106;2022-08-07T02:37:09;1.42;;;1.42;;
45905;SDS011;31619;49.008;12.106;2022-08-07T02:39:38;1.77;;;1.70;;
45905;SDS011;31619;49.008;12.106;2022-08-07T02:42:04;1.77;;;1.58;;
45905;SDS011;31619;49.008;12.106;2022-08-07T02:44:31;1.67;;;1.60;;
45905;SDS011;31619;49.008;12.106;2022-08-07T02:46:58;1.60;;;1.48;;
45905;SDS011;31619;49.008;12.106;2022-08-07T02:49:25;1.70;;;1.60;;
45905;SDS011;31619;49.008;12.106;2022-08-07T02:51:51;1.95;;;1.70;;
45905;SDS011;31619;49.008;12.106;2022-08-07T02:54:21;1.85;;;1.75;;
45905;SDS011;31619;49.008;12.106;2022-08-07T02:56:51;1.98;;;1.42;;
45905;SDS011;31619;49.008;12.106;2022-08-07T02:59:20;1.92;;;1.80;;
45905;SDS011;31619;49.008;12.106;2022-08-07T03:01:49;1.70;;;1.60;;
45905;SDS011;31619;49.008;12.106;2022-08-07T03:04:16;1.85;;;1.75;;
45905;SDS011;31619;49.008;12.106;2022-08-07T03:06:44;1.90;;;1.80;;
45905;SDS011;31619;49.008;12.106;2022-08-07T03:09:12;1.52;;;1.42;;
45905;SDS011;31619;49.008;12.106;2022-08-07T03:11:38;3.17;;;1.80;;
45905;SDS011;31619;49.008;12.106;2022-08-07T03:14:04;1.70;;;1.60;;
45905;SDS011;31619;49.008;12.106;2022-08-07T03:16:31;1.45;;;1.45;;
45905;SDS011;31619;49.008;12.106;2022-08-07T03:18:57;2.05;;;1.55;;
45905;SDS011;31619;49.008;12.106;2022-08-07T03:21:24;1.60;;;1.60;;
45905;SDS011;31619;49.008;12.106;2022-08-07T03:23:52;1.60;;;1.60;;
45905;SDS011;31619;49.008;12.106;2022-08-07T03:26:20;1.50;;;1.50;;
45905;SDS011;31619;49.008;12.106;2022-08-07T03:28:49;1.55;;;1.55;;
45905;SDS011;31619;49.008;12.106;2022-08-07T03:31:18;1.98;;;1.80;;
45905;SDS011;31619;49.008;12.106;2022-08-07T03:33:46;1.50;;;1.40;;
45905;SDS011;31619;49.008;12.106;2022-08-07T03:36:15;3.58;;;1.58;;
45905;SDS011;31619;49.008;12.106;2022-08-07T03:38:43;1.27;;;1.27;;
45905;SDS011;31619;49.008;12.106;2022-08-07T03:41:11;2.47;;;1.50;;
45905;SDS011;31619;49.008;12.106;2022-08-07T03:43:38;1.60;;;1.50;;
45905;SDS011;31619;49.008;12.106;2022-08-07T03:46:05;1.85;;;1.70;;
45905;SDS011;31619;49.008;12.106;2022-08-07T03:48:32;1.70;;;1.60;;
45905;SDS011;31619;49.008;12.106;2022-08-07T03:50:59;1.70;;;1.60;;
45905;SDS011;31619;49.008;12.106;2022-08-07T03:53:26;6.50;;;1.77;;
45905;SDS011;31619;49.008;12.106;2022-08-07T03:55:52;2.78;;;1.70;;
45905;SDS011;31619;49.008;12.106;2022-08-07T03:58:21;1.85;;;1.75;;
45905;SDS011;31619;49.008;12.106;2022-08-07T04:00:50;1.20;;;1.20;;
45905;SDS011;31619;49.008;12.106;2022-08-07T04:03:18;1.48;;;1.48;;
45905;SDS011;31619;49.008;12.106;2022-08-07T04:05:44;1.30;;;1.30;;
45905;SDS011;31619;49.008;12.106;2022-08-07T04:08:11;1.55;;;1.45;;
45905;SDS011;31619;49.008;12.106;2022-08-07T04:10:38;1.70;;;1.60;;
45905;SDS011;31619;49.008;12.106;2022-08-07T04:13:05;2.50;;;1.70;;
45905;SDS011;31619;49.008;12.106;2022-08-07T04:15:31;1.25;;;1.20;;
45905;SDS011;31619;49.008;12.106;2022-08-07T04:17:58;1.50;;;1.40;;
45905;SDS011;31619;49.008;12.106;2022-08-07T04:20:25;1.67;;;1.58;;
45905;SDS011;31619;49.008;12.106;2022-08-07T04:22:51;1.42;;;1.17;;
45905;SDS011;31619;49.008;12.106;2022-08-07T04:25:17;1.10;;;1.10;;
45905;SDS011;31619;49.008;12.106;2022-08-07T04:27:45;1.02;;;1.00;;
45905;SDS011;31619;49.008;12.106;2022-08-07T04:30:10;1.40;;;1.30;;
45905;SDS011;31619;49.008;12.106;2022-08-07T04:32:36;2.80;;;1.55;;
45905;SDS011;31619;49.008;12.106;2022-08-07T04:35:03;1.30;;;1.20;;
45905;SDS011;31619;49.008;12.106;2022-08-07T04:37:31;1.80;;;1.40;;
45905;SDS011;31619;49.008;12.106;2022-08-07T04:39:57;1.60;;;1.50;;
45905;SDS011;31619;49.008;12.106;2022-08-07T04:42:23;1.25;;;1.25;;
45905;SDS011;31619;49.008;12.106;2022-08-07T04:44:53;1.20;;;1.20;;
45905;SDS011;31619;49.008;12.106;2022-08-07T04:47:42;1.10;;;1.10;;
45905;SDS011;31619;49.008;12.106;2022-08-07T04:55:27;0.98;;;0.95;;
45905;SDS011;31619;49.008;12.106;2022-08-07T04:58:01;2.20;;;1.48;;
45905;SDS011;31619;49.008;12.106;2022-08-07T05:00:49;1.20;;;1.20;;
45905;SDS011;31619;49.008;12.106;2022-08-07T05:06:46;1.17;;;1.08;;
45905;SDS011;31619;49.008;12.106;2022-08-07T05:09:21;1.95;;;1.10;;
45905;SDS011;31619;49.008;12.106;2022-08-07T05:12:15;1.20;;;1.20;;
45905;SDS011;31619;49.008;12.106;2022-08-07T05:14:46;4.00;;;1.27;;
45905;SDS011;31619;49.008;12.106;2022-08-07T05:17:13;1.20;;;1.00;;
45905;SDS011;31619;49.008;12.106;2022-08-07T05:19:51;2.30;;;1.10;;
45905;SDS011;31619;49.008;12.106;2022-08-07T05:22:20;1.42;;;0.98;;
45905;SDS011;31619;49.008;12.106;2022-08-07T05:24:48;1.20;;;1.20;;
45905;SDS011;31619;49.008;12.106;2022-08-07T05:27:19;1.00;;;1.00;;
45905;SDS011;31619;49.008;12.106;2022-08-07T05:29:46;1.88;;;1.20;;
45905;SDS011;31619;49.008;12.106;2022-08-07T05:32:13;1.95;;;1.52;;
45905;SDS011;31619;49.008;12.106;2022-08-07T05:34:43;1.30;;;1.20;;
45905;SDS011;31619;49.008;12.106;2022-08-07T05:37:09;1.08;;;1.08;;
45905;SDS011;31619;49.008;12.106;2022-08-07T05:39:37;1.27;;;1.17;;
45905;SDS011;31619;49.008;12.106;2022-08-07T05:42:03;3.15;;;1.30;;
45905;SDS011;31619;49.008;12.106;2022-08-07T05:44:32;1.23;;;1.20;;
45905;SDS011;31619;49.008;12.106;2022-08-07T05:46:59;2.45;;;1.10;;
45905;SDS011;31619;49.008;12.106;2022-08-07T05:49:25;1.15;;;1.05;;
45905;SDS011;31619;49.008;12.106;2022-08-07T05:51:51;2.67;;;1.27;;
45905;SDS011;31619;49.008;12.106;2022-08-07T05:54:17;1.55;;;1.15;;
45905;SDS011;31619;49.008;12.106;2022-08-07T05:56:43;2.25;;;1.20;;
45905;SDS011;31619;49.008;12.106;2022-08-07T05:59:15;1.30;;;1.20;;
45905;SDS011;31619;49.008;12.106;2022-08-07T06:01:43;0.93;;;0.93;;
45905;SDS011;31619;49.008;12.106;2022-08-07T06:04:10;1.05;;;1.02;;
45905;SDS011;31619;49.008;12.106;2022-08-07T06:06:39;1.13;;;1.05;;
45905;SDS011;31619;49.008;12.106;2022-08-07T06:09:04;1.23;;;1.13;;
45905;SDS011;31619;49.008;12.106;2022-08-07T06:11:31;1.23;;;1.23;;
45905;SDS011;31619;49.008;12.106;2022-08-07T06:13:58;0.80;;;0.80;;
45905;SDS011;31619;49.008;12.106;2022-08-07T06:16:24;1.20;;;1.10;;
45905;SDS011;31619;49.008;12.106;2022-08-07T06:18:55;1.30;;;1.20;;
45905;SDS011;31619;49.008;12.106;2022-08-07T06:21:23;0.90;;;0.90;;
45905;SDS011;31619;49.008;12.106;2022-08-07T06:23:49;0.98;;;0.98;;
45905;SDS011;31619;49.008;12.106;2022-08-07T06:26:15;1.25;;;1.02;;
45905;SDS011;31619;49.008;12.106;2022-08-07T06:28:50;1.08;;;0.98;;
45905;SDS011;31619;49.008;12.106;2022-08-07T06:31:17;1.15;;;1.10;;
45905;SDS011;31619;49.008;12.106;2022-08-07T06:33:43;1.23;;;1.13;;
45905;SDS011;31619;49.008;12.106;2022-08-07T06:36:10;1.42;;;1.40;;
45905;SDS011;31619;49.008;12.106;2022-08-07T06:38:36;2.75;;;1.88;;
45905;SDS011;31619;49.008;12.106;2022-08-07T06:41:01;1.20;;;1.20;;
45905;SDS011;31619;49.008;12.106;2022-08-07T06:43:31;1.58;;;1.27;;
45905;SDS011;31619;49.008;12.106;2022-08-07T06:46:00;1.58;;;1.25;;
45905;SDS011;31619;49.008;12.106;2022-08-07T06:48:26;0.93;;;0.93;;
45905;SDS011;31619;49.008;12.106;2022-08-07T06:50:52;2.55;;;1.42;;
45905;SDS011;31619;49.008;12.106;2022-08-07T06:53:19;3.58;;;1.30;;
45905;SDS011;31619;49.008;12.106;2022-08-07T06:55:46;2.55;;;1.38;;
45905;SDS011;31619;49.008;12.106;2022-08-07T06:58:13;1.20;;;1.15;;
45905;SDS011;31619;49.008;12.106;2022-08-07T07:00:40;1.45;;;1.00;;
45905;SDS011;31619;49.008;12.106;2022-08-07T07:03:08;1.30;;;1.20;;
45905;SDS011;31619;49.008;12.106;2022-08-07T07:05:35;1.17;;;1.15;;
45905;SDS011;31619;49.008;12.106;2022-08-07T07:08:01;1.42;;;1.30;;
45905;SDS011;31619;49.008;12.106;2022-08-07T07:10:29;3.33;;;1.80;;
45905;SDS011;31619;49.008;12.106;2022-08-07T07:13:10;4.57;;;1.63;;
45905;SDS011;31619;49.008;12.106;2022-08-07T07:15:43;1.50;;;1.00;;
45905;SDS011;31619;49.008;12.106;2022-08-07T07:20:54;1.30;;;1.20;;
45905;SDS011;31619;49.008;12.106;2022-08-07T07:23:23;0.82;;;0.80;;
45905;SDS011;31619;49.008;12.106;2022-08-07T07:25:51;1.05;;;1.05;;
45905;SDS011;31619;49.008;12.106;2022-08-07T07:30:59;2.28;;;1.42;;
45905;SDS011;31619;49.008;12.106;2022-08-07T07:33:29;1.30;;;0.90;;
45905;SDS011;31619;49.008;12.106;2022-08-07T07:35:58;1.20;;;1.10;;
45905;SDS011;31619;49.008;12.106;2022-08-07T07:38:25;1.10;;;1.05;;
45905;SDS011;31619;49.008;12.106;2022-08-07T07:40:51;1.42;;;1.00;;
45905;SDS011;31619;49.008;12.106;2022-08-07T07:43:19;1.23;;;1.13;;
45905;SDS011;31619;49.008;12.106;2022-08-07T07:45:46;0.82;;;0.82;;
45905;SDS011;31619;49.008;12.106;2022-08-07T07:48:15;1.05;;;0.95;;
45905;SDS011;31619;49.008;12.106;2022-08-07T07:50:45;1.20;;;1.20;;
45905;SDS011;31619;49.008;12.106;2022-08-07T07:53:13;1.05;;;1.05;;
45905;SDS011;31619;49.008;12.106;2022-08-07T07:55:42;1.15;;;0.93;;
45905;SDS011;31619;49.008;12.106;2022-08-07T07:58:08;0.98;;;0.98;;
45905;SDS011;31619;49.008;12.106;2022-08-07T08:00:35;1.10;;;1.10;;
45905;SDS011;31619;49.008;12.106;2022-08-07T08:03:06;1.20;;;1.10;;
45905;SDS011;31619;49.008;12.106;2022-08-07T08:05:36;0.88;;;0.88;;
45905;SDS011;31619;49.008;12.106;2022-08-07T08:08:04;1.58;;;0.90;;
45905;SDS011;31619;49.008;12.106;2022-08-07T08:10:32;1.00;;;1.00;;
45905;SDS011;31619;49.008;12.106;2022-08-07T08:12:59;0.90;;;0.90;;
45905;SDS011;31619;49.008;12.106;2022-08-07T08:15:27;1.35;;;1.30;;
45905;SDS011;31619;49.008;12.106;2022-08-07T08:17:55;1.20;;;1.10;;
45905;SDS011;31619;49.008;12.106;2022-08-07T08:20:23;1.20;;;1.10;;
45905;SDS011;31619;49.008;12.106;2022-08-07T08:22:51;1.00;;;1.00;;
45905;SDS011;31619;49.008;12.106;2022-08-07T08:25:38;1.50;;;1.00;;
45905;SDS011;31619;49.008;12.106;2022-08-07T08:28:24;0.93;;;0.93;;
45905;SDS011;31619;49.008;12.106;2022-08-07T08:30:54;1.73;;;1.10;;
45905;SDS011;31619;49.008;12.106;2022-08-07T08:33:32;1.15;;;0.90;;
45905;SDS011;31619;49.008;12.106;2022-08-07T08:35:59;1.00;;;1.00;;
45905;SDS011;31619;49.008;12.106;2022-08-07T08:38:39;2.55;;;1.70;;
45905;SDS011;31619;49.008;12.106;2022-08-07T08:41:16;1.50;;;1.40;;
45905;SDS011;31619;49.008;12.106;2022-08-07T08:46:35;1.00;;;0.80;;
45905;SDS011;31619;49.008;12.106;2022-08-07T08:49:25;1.00;;;1.00;;
45905;SDS011;31619;49.008;12.106;2022-08-07T08:54:56;0.88;;;0.80;;
45905;SDS011;31619;49.008;12.106;2022-08-07T08:57:48;0.70;;;0.70;;
45905;SDS011;31619;49.008;12.106;2022-08-07T09:00:45;1.02;;;1.02;;
45905;SDS011;31619;49.008;12.106;2022-08-07T09:03:21;0.82;;;0.82;;
45905;SDS011;31619;49.008;12.106;2022-08-07T09:06:05;1.58;;;1.13;;
45905;SDS011;31619;49.008;12.106;2022-08-07T09:11:34;6.53;;;1.73;;
45905;SDS011;31619;49.008;12.106;2022-08-07T09:19:44;1.02;;;1.02;;
45905;SDS011;31619;49.008;12.106;2022-08-07T09:22:37;1.00;;;1.00;;
45905;SDS011;31619;49.008;12.106;2022-08-07T09:25:16;2.60;;;1.05;;
45905;SDS011;31619;49.008;12.106;2022-08-07T09:28:00;0.93;;;0.93;;
45905;SDS011;31619;49.008;12.106;2022-08-07T09:44:29;0.70;;;0.70;;
45905;SDS011;31619;49.008;12.106;2022-08-07T09:47:05;0.70;;;0.70;;
45905;SDS011;31619;49.008;12.106;2022-08-07T09:49:47;1.05;;;0.60;;
45905;SDS011;31619;49.008;12.106;2022-08-07T09:55:26;1.83;;;0.90;;
45905;SDS011;31619;49.008;12.106;2022-08-07T10:06:54;1.30;;;0.80;;
45905;SDS011;31619;49.008;12.106;2022-08-07T10:34:32;0.63;;;0.63;;
45905;SDS011;31619;49.008;12.106;2022-08-07T10:37:20;0.65;;;0.50;;
45905;SDS011;31619;49.008;12.106;2022-08-07T10:40:11;0.50;;;0.50;;
45905;SDS011;31619;49.008;12.106;2022-08-07T10:43:33;0.70;;;0.63;;
45905;SDS011;31619;49.008;12.106;2022-08-07T10:45:57;0.77;;;0.65;;
45905;SDS011;31619;49.008;12.106;2022-08-07T10:48:40;0.63;;;0.63;;
45905;SDS011;31619;49.008;12.106;2022-08-07T11:05:10;0.63;;;0.63;;
45905;SDS011;31619;49.008;12.106;2022-08-07T11:07:54;2.47;;;0.68;;
45905;SDS011;31619;49.008;12.106;2022-08-07T11:10:44;0.50;;;0.50;;
45905;SDS011;31619;49.008;12.106;2022-08-07T11:13:17;0.60;;;0.60;;
45905;SDS011;31619;49.008;12.106;2022-08-07T11:15:50;0.43;;;0.43;;
45905;SDS011;31619;49.008;12.106;2022-08-07T11:18:29;0.60;;;0.60;;
45905;SDS011;31619;49.008;12.106;2022-08-07T11:21:03;0.88;;;0.40;;
45905;SDS011;31619;49.008;12.106;2022-08-07T11:29:54;0.90;;;0.90;;
45905;SDS011;31619;49.008;12.106;2022-08-07T11:35:28;0.68;;;0.52;;
45905;SDS011;31619;49.008;12.106;2022-08-07T11:38:15;2.30;;;0.60;;
45905;SDS011;31619;49.008;12.106;2022-08-07T11:41:00;0.47;;;0.47;;
45905;SDS011;31619;49.008;12.106;2022-08-07T11:43:51;0.52;;;0.52;;
45905;SDS011;31619;49.008;12.106;2022-08-07T11:55:00;1.38;;;0.63;;
45905;SDS011;31619;49.008;12.106;2022-08-07T12:00:18;1.33;;;0.73;;
45905;SDS011;31619;49.008;12.106;2022-08-07T12:08:37;0.70;;;0.70;;
45905;SDS011;31619;49.008;12.106;2022-08-07T12:11:14;0.60;;;0.60;;
45905;SDS011;31619;49.008;12.106;2022-08-07T12:16:39;1.05;;;0.60;;
45905;SDS011;31619;49.008;12.106;2022-08-07T12:22:05;0.40;;;0.40;;
45905;SDS011;31619;49.008;12.106;2022-08-07T12:24:58;0.70;;;0.70;;
45905;SDS011;31619;49.008;12.106;2022-08-07T12:27:49;0.60;;;0.60;;
45905;SDS011;31619;49.008;12.106;2022-08-07T12:30:21;0.75;;;0.75;;
45905;SDS011;31619;49.008;12.106;2022-08-07T12:35:50;1.55;;;0.50;;
45905;SDS011;31619;49.008;12.106;2022-08-07T12:38:18;0.75;;;0.75;;
45905;SDS011;31619;49.008;12.106;2022-08-07T12:40:45;0.65;;;0.60;;
45905;SDS011;31619;49.008;12.106;2022-08-07T12:43:13;1.95;;;0.70;;
45905;SDS011;31619;49.008;12.106;2022-08-07T12:51:17;0.45;;;0.45;;
45905;SDS011;31619;49.008;12.106;2022-08-07T12:53:57;1.35;;;0.60;;
45905;SDS011;31619;49.008;12.106;2022-08-07T12:59:04;0.40;;;0.40;;
45905;SDS011;31619;49.008;12.106;2022-08-07T13:09:57;1.75;;;0.60;;
45905;SDS011;31619;49.008;12.106;2022-08-07T13:15:37;0.75;;;0.65;;
45905;SDS011;31619;49.008;12.106;2022-08-07T13:18:44;1.02;;;0.40;;
45905;SDS011;31619;49.008;12.106;2022-08-07T13:21:27;0.45;;;0.45;;
45905;SDS011;31619;49.008;12.106;2022-08-07T13:27:07;0.73;;;0.73;;
45905;SDS011;31619;49.008;12.106;2022-08-07T13:29:45;0.40;;;0.40;;
45905;SDS011;31619;49.008;12.106;2022-08-07T13:32:23;0.82;;;0.45;;
45905;SDS011;31619;49.008;12.106;2022-08-07T13:35:21;1.38;;;0.60;;
45905;SDS011;31619;49.008;12.106;2022-08-07T13:38:19;0.73;;;0.65;;
45905;SDS011;31619;49.008;12.106;2022-08-07T13:43:42;0.55;;;0.55;;
45905;SDS011;31619;49.008;12.106;2022-08-07T13:46:10;0.40;;;0.40;;
45905;SDS011;31619;49.008;12.106;2022-08-07T13:48:42;0.40;;;0.40;;
45905;SDS011;31619;49.008;12.106;2022-08-07T13:51:09;0.60;;;0.60;;
45905;SDS011;31619;49.008;12.106;2022-08-07T13:53:38;0.35;;;0.35;;
45905;SDS011;31619;49.008;12.106;2022-08-07T13:56:07;0.43;;;0.43;;
45905;SDS011;31619;49.008;12.106;2022-08-07T13:58:36;0.40;;;0.40;;
45905;SDS011;31619;49.008;12.106;2022-08-07T14:01:25;0.50;;;0.50;;
45905;SDS011;31619;49.008;12.106;2022-08-07T14:04:06;2.13;;;0.60;;
45905;SDS011;31619;49.008;12.106;2022-08-07T14:06:36;1.65;;;0.73;;
45905;SDS011;31619;49.008;12.106;2022-08-07T14:09:04;1.20;;;0.38;;
45905;SDS011;31619;49.008;12.106;2022-08-07T14:11:32;0.52;;;0.52;;
45905;SDS011;31619;49.008;12.106;2022-08-07T14:14:09;0.57;;;0.57;;
45905;SDS011;31619;49.008;12.106;2022-08-07T14:16:39;0.20;;;0.20;;
45905;SDS011;31619;49.008;12.106;2022-08-07T14:19:13;1.33;;;0.40;;
45905;SDS011;31619;49.008;12.106;2022-08-07T14:21:48;0.60;;;0.60;;
45905;SDS011;31619;49.008;12.106;2022-08-07T14:24:35;0.93;;;0.60;;
45905;SDS011;31619;49.008;12.106;2022-08-07T14:27:04;0.90;;;0.90;;
45905;SDS011;31619;49.008;12.106;2022-08-07T14:29:37;0.43;;;0.43;;
45905;SDS011;31619;49.008;12.106;2022-08-07T14:32:07;0.50;;;0.50;;
45905;SDS011;31619;49.008;12.106;2022-08-07T14:34:38;1.85;;;0.60;;
45905;SDS011;31619;49.008;12.106;2022-08-07T14:37:09;0.43;;;0.43;;
45905;SDS011;31619;49.008;12.106;2022-08-07T14:39:36;1.30;;;0.50;;
45905;SDS011;31619;49.008;12.106;2022-08-07T14:42:06;0.88;;;0.60;;
45905;SDS011;31619;49.008;12.106;2022-08-07T14:44:39;0.77;;;0.60;;
45905;SDS011;31619;49.008;12.106;2022-08-07T14:47:14;0.93;;;0.47;;
45905;SDS011;31619;49.008;12.106;2022-08-07T14:49:42;1.65;;;0.52;;
45905;SDS011;31619;49.008;12.106;2022-08-07T14:52:10;0.43;;;0.43;;
45905;SDS011;31619;49.008;12.106;2022-08-07T14:54:37;0.50;;;0.50;;
45905;SDS011;31619;49.008;12.106;2022-08-07T14:57:05;0.70;;;0.70;;
45905;SDS011;31619;49.008;12.106;2022-08-07T14:59:35;0.50;;;0.50;;
45905;SDS011;31619;49.008;12.106;2022-08-07T15:02:11;0.88;;;0.88;;
45905;SDS011;31619;49.008;12.106;2022-08-07T15:04:44;0.80;;;0.80;;
45905;SDS011;31619;49.008;12.106;2022-08-07T15:07:15;0.60;;;0.60;;
45905;SDS011;31619;49.008;12.106;2022-08-07T15:09:43;0.60;;;0.60;;
45905;SDS011;31619;49.008;12.106;2022-08-07T15:12:12;1.27;;;0.80;;
45905;SDS011;31619;49.008;12.106;2022-08-07T15:14:46;0.80;;;0.80;;
45905;SDS011;31619;49.008;12.106;2022-08-07T15:17:18;2.22;;;0.52;;
45905;SDS011;31619;49.008;12.106;2022-08-07T15:19:49;0.82;;;0.60;;
45905;SDS011;31619;49.008;12.106;2022-08-07T15:22:20;1.42;;;0.38;;
45905;SDS011;31619;49.008;12.106;2022-08-07T15:25:11;0.75;;;0.43;;
45905;SDS011;31619;49.008;12.106;2022-08-07T15:27:40;0.50;;;0.50;;
45905;SDS011;31619;49.008;12.106;2022-08-07T15:30:07;0.60;;;0.60;;
45905;SDS011;31619;49.008;12.106;2022-08-07T15:32:43;0.40;;;0.40;;
45905;SDS011;31619;49.008;12.106;2022-08-07T15:35:15;1.15;;;0.73;;
45905;SDS011;31619;49.008;12.106;2022-08-07T15:37:50;1.63;;;0.80;;
45905;SDS011;31619;49.008;12.106;2022-08-07T15:40:18;2.05;;;0.90;;
45905;SDS011;31619;49.008;12.106;2022-08-07T15:42:46;0.90;;;0.90;;
45905;SDS011;31619;49.008;12.106;2022-08-07T15:48:02;1.52;;;0.70;;
45905;SDS011;31619;49.008;12.106;2022-08-07T15:50:32;0.40;;;0.40;;
45905;SDS011;31619;49.008;12.106;2022-08-07T15:53:04;0.52;;;0.52;;
45905;SDS011;31619;49.008;12.106;2022-08-07T15:55:35;1.05;;;0.70;;
45905;SDS011;31619;49.008;12.106;2022-08-07T15:58:01;0.82;;;0.80;;
45905;SDS011;31619;49.008;12.106;2022-08-07T16:00:29;0.57;;;0.57;;
45905;SDS011;31619;49.008;12.106;2022-08-07T16:03:00;1.60;;;0.98;;
45905;SDS011;31619;49.008;12.106;2022-08-07T16:05:33;1.73;;;0.98;;
45905;SDS011;31619;49.008;12.106;2022-08-07T16:08:03;1.00;;;0.77;;
45905;SDS011;31619;49.008;12.106;2022-08-07T16:10:37;0.80;;;0.80;;
45905;SDS011;31619;49.008;12.106;2022-08-07T16:13:32;0.73;;;0.60;;
45905;SDS011;31619;49.008;12.106;2022-08-07T16:22:07;1.83;;;1.45;;
45905;SDS011;31619;49.008;12.106;2022-08-07T16:24:58;2.42;;;1.48;;
45905;SDS011;31619;49.008;12.106;2022-08-07T16:27:31;2.08;;;1.98;;
45905;SDS011;31619;49.008;12.106;2022-08-07T16:30:08;2.03;;;1.90;;
45905;SDS011;31619;49.008;12.106;2022-08-07T16:35:12;2.05;;;1.10;;
45905;SDS011;31619;49.008;12.106;2022-08-07T16:52:59;0.93;;;0.90;;
45905;SDS011;31619;49.008;12.106;2022-08-07T16:55:52;1.10;;;1.10;;
45905;SDS011;31619;49.008;12.106;2022-08-07T17:03:50;1.20;;;1.20;;
45905;SDS011;31619;49.008;12.106;2022-08-07T17:06:45;3.03;;;2.20;;
45905;SDS011;31619;49.008;12.106;2022-08-07T17:12:14;0.90;;;0.90;;
45905;SDS011;31619;49.008;12.106;2022-08-07T17:20:52;0.90;;;0.90;;
45905;SDS011;31619;49.008;12.106;2022-08-07T17:28:34;1.20;;;1.20;;
45905;SDS011;31619;49.008;12.106;2022-08-07T17:31:22;1.30;;;1.23;;
45905;SDS011;31619;49.008;12.106;2022-08-07T17:34:45;1.33;;;0.88;;
45905;SDS011;31619;49.008;12.106;2022-08-07T17:36:44;1.20;;;1.20;;
45905;SDS011;31619;49.008;12.106;2022-08-07T17:39:18;1.85;;;1.05;;
45905;SDS011;31619;49.008;12.106;2022-08-07T17:42:06;0.93;;;0.93;;
45905;SDS011;31619;49.008;12.106;2022-08-07T17:44:54;1.13;;;0.95;;
45905;SDS011;31619;49.008;12.106;2022-08-07T17:47:30;1.85;;;0.90;;
45905;SDS011;31619;49.008;12.106;2022-08-07T17:55:27;2.40;;;2.10;;
45905;SDS011;31619;49.008;12.106;2022-08-07T18:00:34;2.08;;;1.95;;
45905;SDS011;31619;49.008;12.106;2022-08-07T18:03:12;1.45;;;1.35;;
45905;SDS011;31619;49.008;12.106;2022-08-07T18:06:05;1.75;;;1.38;;
45905;SDS011;31619;49.008;12.106;2022-08-07T18:18:51;1.98;;;1.38;;
45905;SDS011;31619;49.008;12.106;2022-08-07T18:21:25;1.00;;;1.00;;
45905;SDS011;31619;49.008;12.106;2022-08-07T18:23:57;1.15;;;1.05;;
45905;SDS011;31619;49.008;12.106;2022-08-07T18:26:29;1.08;;;1.08;;
45905;SDS011;31619;49.008;12.106;2022-08-07T18:29:22;5.28;;;1.30;;
45905;SDS011;31619;49.008;12.106;2022-08-07T18:40:31;0.93;;;0.93;;
45905;SDS011;31619;49.008;12.106;2022-08-07T18:43:33;1.17;;;1.17;;
45905;SDS011;31619;49.008;12.106;2022-08-07T18:46:20;4.22;;;1.30;;
45905;SDS011;31619;49.008;12.106;2022-08-07T18:56:50;1.40;;;1.30;;